createdAt,value
2023-03-28T00:02:08.891Z,992.2
2023-03-28T00:04:10.742Z,992.2
2023-03-28T00:08:13.542Z,992.3
2023-03-28T00:12:16.334Z,992.3
2023-03-28T00:14:18.269Z,992.3
2023-03-28T00:18:21.482Z,992.3
2023-03-28T00:20:23.311Z,992.4
2023-03-28T00:24:26.420Z,992.3
2023-03-28T00:28:29.499Z,992.5
2023-03-28T00:30:30.616Z,992.5
2023-03-28T00:34:33.682Z,992.5
2023-03-28T00:36:35.587Z,992.5
2023-03-28T00:40:39.183Z,992.5
2023-03-28T00:44:42.366Z,992.5
2023-03-28T00:46:43.994Z,992.6
2023-03-28T00:50:46.600Z,992.6
2023-03-28T00:54:50.359Z,992.6
2023-03-28T00:56:51.833Z,992.6
2023-03-28T01:01:38.741Z,992.7
2023-03-28T01:05:41.795Z,992.6
2023-03-28T01:07:43.368Z,992.7
2023-03-28T01:11:46.923Z,992.7
2023-03-28T01:13:48.288Z,992.7
2023-03-28T01:17:50.682Z,992.6
2023-03-28T01:21:53.356Z,992.7
2023-03-28T01:24:11.127Z,992.7
2023-03-28T01:27:59.224Z,992.8
2023-03-28T01:32:01.781Z,992.8
2023-03-28T01:34:03.661Z,992.8
2023-03-28T01:38:07.004Z,992.8
2023-03-28T01:40:08.202Z,992.8
2023-03-28T01:44:11.533Z,993
2023-03-28T01:48:14.638Z,993
2023-03-28T01:50:15.963Z,993
2023-03-28T01:54:19.635Z,993
2023-03-28T01:56:20.914Z,993
2023-03-28T02:00:23.548Z,993
2023-03-28T02:04:25.821Z,993.1
2023-03-28T02:06:27.485Z,993.1
2023-03-28T02:10:31.088Z,993.1
2023-03-28T02:14:34.251Z,993
2023-03-28T02:16:35.832Z,993
2023-03-28T02:20:38.810Z,993
2023-03-28T02:22:40.296Z,993.1
2023-03-28T02:26:43.824Z,993
2023-03-28T02:30:46.705Z,993
2023-03-28T02:32:48.539Z,993
2023-03-28T02:36:51.636Z,993
2023-03-28T02:38:53.092Z,993.1
2023-03-28T02:42:56.500Z,993.1
2023-03-28T02:47:01.246Z,993.1
2023-03-28T02:49:01.528Z,992.9
2023-03-28T02:53:04.177Z,993.1
2023-03-28T02:59:08.904Z,993.1
2023-03-28T03:03:12.357Z,993
2023-03-28T03:05:14.032Z,993.1
2023-03-28T03:09:17.303Z,993.2
2023-03-28T03:11:19.315Z,993.2
2023-03-28T03:15:22.364Z,993.2
2023-03-28T03:19:25.587Z,993.2
2023-03-28T03:21:27.022Z,993.2
2023-03-28T03:25:30.405Z,993.2
2023-03-28T03:29:38.364Z,993.1
2023-03-28T03:31:34.903Z,993.1
2023-03-28T03:33:45.343Z,993.2
2023-03-28T03:35:37.709Z,993.2
2023-03-28T03:37:39.313Z,993.1
2023-03-28T03:41:42.481Z,993.3
2023-03-28T03:43:52.566Z,993.2
2023-03-28T03:45:45.838Z,993.1
2023-03-28T03:47:47.396Z,993.2
2023-03-28T03:51:50.480Z,993.2
2023-03-28T03:53:51.573Z,993.2
2023-03-28T03:57:56.339Z,993.2
2023-03-28T03:59:56.995Z,993.2
2023-03-28T04:01:58.674Z,993.2
2023-03-28T04:03:59.930Z,993.1
2023-03-28T04:08:03.185Z,993.2
2023-03-28T04:12:06.339Z,993.2
2023-03-28T04:14:07.553Z,993.2
2023-03-28T04:18:11.067Z,993.2
2023-03-28T04:20:12.715Z,993.2
2023-03-28T04:24:15.010Z,993.3
2023-03-28T04:28:17.856Z,993.3
2023-03-28T04:30:19.275Z,993.3
2023-03-28T04:34:23.216Z,993.3
2023-03-28T04:36:25.131Z,993.3
2023-03-28T04:40:28.607Z,993.4
2023-03-28T04:44:31.798Z,993.6
2023-03-28T04:46:33.468Z,993.6
2023-03-28T04:50:37.157Z,993.6
2023-03-28T04:54:39.842Z,993.6
2023-03-28T04:56:41.697Z,993.7
2023-03-28T05:00:45.289Z,993.7
2023-03-28T05:02:46.591Z,993.8
2023-03-28T05:04:47.753Z,993.8
2023-03-28T05:06:48.910Z,993.7
2023-03-28T05:10:51.751Z,993.7
2023-03-28T05:13:01.832Z,993.8
2023-03-28T05:14:54.922Z,993.8
2023-03-28T05:16:56.021Z,993.8
2023-03-28T05:18:58.915Z,993.8
2023-03-28T05:23:00.655Z,993.8
2023-03-28T05:25:02.146Z,993.9
2023-03-28T05:27:03.339Z,993.9
2023-03-28T05:29:05.000Z,994
2023-03-28T05:33:08.842Z,993.9
2023-03-28T05:35:09.891Z,994
2023-03-28T05:39:13.817Z,994
2023-03-28T05:43:17.330Z,994.1
2023-03-28T05:45:18.843Z,994.3
2023-03-28T05:49:21.989Z,994.2
2023-03-28T05:53:24.814Z,994.2
2023-03-28T05:55:26.334Z,994.3
2023-03-28T05:59:29.498Z,994.3
2023-03-28T06:01:30.734Z,994.2
2023-03-28T06:05:33.949Z,994.3
2023-03-28T06:07:41.813Z,994.2
2023-03-28T06:09:37.241Z,994.3
2023-03-28T06:11:38.527Z,994.3
2023-03-28T06:15:41.789Z,994.3
2023-03-28T06:17:43.832Z,994.4
2023-03-28T06:21:46.457Z,994.3
2023-03-28T06:25:49.503Z,994.4
2023-03-28T06:27:50.834Z,994.4
2023-03-28T06:31:53.682Z,994.4
2023-03-28T06:35:56.169Z,994.4
2023-03-28T06:37:57.323Z,994.5
2023-03-28T06:42:00.184Z,994.6
2023-03-28T06:44:01.438Z,994.5
2023-03-28T06:48:04.760Z,994.6
2023-03-28T06:52:07.053Z,994.5
2023-03-28T06:54:08.550Z,994.6
2023-03-28T06:58:10.888Z,994.5
2023-03-28T07:00:12.729Z,994.4
2023-03-28T07:04:16.190Z,994.6
2023-03-28T07:08:19.521Z,994.5
2023-03-28T07:10:20.739Z,994.6
2023-03-28T07:14:23.734Z,994.6
2023-03-28T07:18:26.988Z,994.7
2023-03-28T07:20:28.895Z,994.7
2023-03-28T07:24:30.957Z,994.7
2023-03-28T07:26:32.471Z,994.7
2023-03-28T07:30:34.707Z,994.7
2023-03-28T07:34:37.093Z,994.8
2023-03-28T07:36:38.077Z,994.8
2023-03-28T07:40:40.811Z,994.7
2023-03-28T07:42:42.516Z,994.8
2023-03-28T07:45:28.124Z,994.9
2023-03-28T07:47:29.659Z,994.8
2023-03-28T07:51:39.850Z,994.9
2023-03-28T07:57:35.495Z,994.9
2023-03-28T08:01:38.298Z,994.9
2023-03-28T08:03:40.249Z,995
2023-03-28T08:07:42.276Z,995
2023-03-28T08:11:44.418Z,995.1
2023-03-28T08:13:46.054Z,995
2023-03-28T08:17:48.874Z,995.1
2023-03-28T08:19:49.766Z,995
2023-03-28T08:23:52.062Z,994.9
2023-03-28T08:27:54.798Z,995.1
2023-03-28T08:29:56.550Z,995
2023-03-28T08:33:58.964Z,995.1
2023-03-28T08:36:00.128Z,995.1
2023-03-28T08:40:02.713Z,995
2023-03-28T08:44:06.099Z,995
2023-03-28T08:46:07.769Z,995.1
2023-03-28T08:50:12.317Z,995.1
2023-03-28T08:54:13.762Z,995
2023-03-28T08:56:15.414Z,995.1
2023-03-28T09:00:17.802Z,995.1
2023-03-28T09:02:19.110Z,995.1
2023-03-28T09:06:21.419Z,995.1
2023-03-28T09:10:23.873Z,995.1
2023-03-28T09:12:24.906Z,995.1
2023-03-28T09:16:28.461Z,995.1
2023-03-28T09:18:29.815Z,995
2023-03-28T09:22:32.858Z,995
2023-03-28T09:26:35.445Z,995
2023-03-28T09:28:36.636Z,995.2
2023-03-28T09:32:40.012Z,995.3
2023-03-28T09:36:48.761Z,995.2
2023-03-28T09:38:43.751Z,995.1
2023-03-28T09:42:46.191Z,995.1
2023-03-28T09:44:53.926Z,995.2
2023-03-28T09:46:48.919Z,995.1
2023-03-28T09:48:50.564Z,995.2
2023-03-28T09:52:52.843Z,995.1
2023-03-28T09:54:54.181Z,995.1
2023-03-28T09:56:55.836Z,995.2
2023-03-28T09:58:57.017Z,995.1
2023-03-28T10:00:58.488Z,995
2023-03-28T10:05:01.187Z,995.1
2023-03-28T10:09:03.673Z,995
2023-03-28T10:11:04.794Z,995.1
2023-03-28T10:15:07.944Z,995
2023-03-28T10:17:08.993Z,995
2023-03-28T10:21:11.212Z,995.1
2023-03-28T10:25:14.298Z,995
2023-03-28T10:27:15.410Z,995
2023-03-28T10:31:17.469Z,994.9
2023-03-28T10:35:21.437Z,994.9
2023-03-28T10:37:21.608Z,994.9
2023-03-28T10:41:25.783Z,995
2023-03-28T10:43:25.932Z,994.9
2023-03-28T10:47:29.283Z,994.8
2023-03-28T10:51:32.043Z,994.8
2023-03-28T10:53:33.424Z,994.7
2023-03-28T10:57:36.324Z,994.7
2023-03-28T10:59:37.729Z,994.6
2023-03-28T11:03:40.410Z,994.5
2023-03-28T11:07:43.077Z,994.6
2023-03-28T11:09:44.996Z,994.5
2023-03-28T11:13:47.930Z,994.6
2023-03-28T11:17:50.807Z,994.6
2023-03-28T11:19:52.005Z,994.7
2023-03-28T11:23:54.579Z,994.7
2023-03-28T11:25:55.887Z,994.7
2023-03-28T11:29:58.386Z,994.7
2023-03-28T11:34:01.200Z,994.7
2023-03-28T11:36:02.874Z,994.7
2023-03-28T11:40:06.581Z,994.6
2023-03-28T11:42:08.246Z,994.6
2023-03-28T11:46:10.756Z,994.5
2023-03-28T11:50:13.411Z,994.5
2023-03-28T11:52:14.801Z,994.4
2023-03-28T11:56:17.444Z,994.4
2023-03-28T12:00:33.028Z,994.3
2023-03-28T12:02:21.860Z,994.4
2023-03-28T12:06:25.037Z,994.3
2023-03-28T12:08:26.643Z,994.2
2023-03-28T12:10:27.752Z,994.2
2023-03-28T12:12:29.193Z,994.1
2023-03-28T12:16:32.065Z,994.1
2023-03-28T12:18:33.820Z,994
2023-03-28T12:22:36.855Z,994
2023-03-28T12:24:38.821Z,994
2023-03-28T12:28:41.425Z,994
2023-03-28T12:32:44.271Z,993.9
2023-03-28T12:34:46.103Z,993.8
2023-03-28T12:38:48.910Z,993.8
2023-03-28T12:42:52.175Z,993.8
2023-03-28T12:44:53.243Z,993.9
2023-03-28T12:48:56.296Z,993.8
2023-03-28T12:50:57.410Z,993.7
2023-03-28T12:52:59.013Z,993.7
2023-03-28T12:55:01.769Z,993.6
2023-03-28T12:59:03.198Z,993.6
2023-03-28T13:01:04.642Z,993.7
2023-03-28T13:03:05.921Z,993.8
2023-03-28T13:05:07.642Z,993.8
2023-03-28T13:07:09.289Z,993.7
2023-03-28T13:11:12.316Z,993.7
2023-03-28T13:13:13.481Z,993.8
2023-03-28T13:15:14.803Z,993.7
2023-03-28T13:17:16.447Z,993.7
2023-03-28T13:21:20.246Z,993.7
2023-03-28T13:23:22.116Z,993.7
2023-03-28T13:27:24.912Z,993.7
2023-03-28T13:29:25.930Z,993.7
2023-03-28T13:33:29.536Z,993.7
2023-03-28T13:37:32.163Z,993.7
2023-03-28T13:41:34.231Z,993.6
2023-03-28T13:43:35.279Z,993.6
2023-03-28T13:47:38.437Z,993.6
2023-03-28T13:49:39.905Z,993.6
2023-03-28T13:53:47.775Z,993.4
2023-03-28T13:57:44.481Z,993.3
2023-03-28T13:59:46.024Z,993.3
2023-03-28T14:03:48.643Z,993.3
2023-03-28T14:05:49.513Z,993.2
2023-03-28T14:09:52.264Z,993.2
2023-03-28T14:13:54.892Z,993.1
2023-03-28T14:15:56.353Z,993.1
2023-03-28T14:19:58.831Z,993
2023-03-28T14:24:01.320Z,993.2
2023-03-28T14:26:02.645Z,993
2023-03-28T14:30:06.125Z,993
2023-03-28T14:34:52.896Z,992.9
2023-03-28T14:36:54.302Z,992.8
2023-03-28T14:40:57.626Z,992.7
2023-03-28T14:42:58.748Z,992.8
2023-03-28T14:47:00.973Z,992.7
2023-03-28T14:51:04.073Z,992.7
2023-03-28T14:53:05.188Z,992.6
2023-03-28T14:57:08.739Z,992.5
2023-03-28T15:03:13.623Z,992.6
2023-03-28T15:07:16.429Z,992.4
2023-03-28T15:09:17.716Z,992.4
2023-03-28T15:11:19.962Z,992.4
2023-03-28T15:13:23.253Z,992.4
2023-03-28T15:17:24.604Z,992.2
2023-03-28T15:19:26.466Z,992.2
2023-03-28T15:21:27.705Z,992.1
2023-03-28T15:23:29.352Z,992.1
2023-03-28T15:25:30.951Z,992.1
2023-03-28T15:29:33.511Z,992.2
2023-03-28T15:31:35.148Z,991.9
2023-03-28T15:33:36.442Z,992.1
2023-03-28T15:35:37.573Z,992
2023-03-28T15:39:40.091Z,992.1
2023-03-28T15:41:41.294Z,992.1
2023-03-28T15:45:44.576Z,992
2023-03-28T15:49:46.868Z,992.1
2023-03-28T15:51:48.599Z,992
2023-03-28T15:55:51.849Z,991.8
2023-03-28T15:59:54.766Z,991.9
2023-03-28T16:01:55.872Z,991.8
2023-03-28T16:06:07.584Z,991.9
2023-03-28T16:07:59.978Z,991.8
2023-03-28T16:12:03.963Z,991.8
2023-03-28T16:16:07.638Z,991.8
2023-03-28T16:18:08.848Z,991.8
2023-03-28T16:22:11.885Z,991.8
2023-03-28T16:24:12.964Z,991.7
2023-03-28T16:28:15.682Z,991.6
2023-03-28T16:32:18.922Z,991.7
2023-03-28T16:34:20.846Z,991.7
2023-03-28T16:38:23.758Z,991.7
2023-03-28T16:42:26.781Z,991.6
2023-03-28T16:44:27.753Z,991.6
2023-03-28T16:48:30.739Z,991.6
2023-03-28T16:50:32.198Z,991.5
2023-03-28T16:54:35.261Z,991.4
2023-03-28T16:58:37.871Z,991.4
2023-03-28T17:00:39.038Z,991.3
2023-03-28T17:04:41.869Z,991.2
2023-03-28T17:06:43.099Z,991.3
2023-03-28T17:10:45.313Z,991.1
2023-03-28T17:14:48.461Z,991.1
2023-03-28T17:16:49.574Z,991.2
2023-03-28T17:20:53.413Z,991.1
2023-03-28T17:24:56.043Z,991.1
2023-03-28T17:26:57.569Z,991
2023-03-28T17:31:00.734Z,991
2023-03-28T17:33:02.267Z,991
2023-03-28T17:37:05.488Z,991.1
2023-03-28T17:41:08.746Z,990.9
2023-03-28T17:43:09.993Z,990.9
2023-03-28T17:47:13.366Z,990.9
2023-03-28T17:49:16.275Z,990.8
2023-03-28T17:53:17.185Z,990.8
2023-03-28T17:57:20.130Z,990.8
2023-03-28T17:59:21.536Z,991
2023-03-28T18:03:24.824Z,990.9
2023-03-28T18:09:28.710Z,990.8
2023-03-28T18:13:31.341Z,990.7
2023-03-28T18:15:32.403Z,990.6
2023-03-28T18:19:35.258Z,990.6
2023-03-28T18:23:38.579Z,990.6
2023-03-28T18:25:39.767Z,990.5
2023-03-28T18:29:42.781Z,990.5
2023-03-28T18:31:44.489Z,990.5
2023-03-28T18:35:48.097Z,990.5
2023-03-28T18:39:51.018Z,990.4
2023-03-28T18:41:52.932Z,990.4
2023-03-28T18:45:56.006Z,990.4
2023-03-28T18:47:57.197Z,990.5
2023-03-28T18:52:00.470Z,990.5
2023-03-28T18:56:03.852Z,990.5
2023-03-28T18:58:05.555Z,990.5
2023-03-28T19:02:08.551Z,990.3
2023-03-28T19:06:11.831Z,990.2
2023-03-28T19:08:13.053Z,990.4
2023-03-28T19:12:16.334Z,990.3
2023-03-28T19:14:17.551Z,990.3
2023-03-28T19:18:20.469Z,990.4
2023-03-28T19:22:24.238Z,990.3
2023-03-28T19:24:26.049Z,990.4
2023-03-28T19:28:29.207Z,990.3
2023-03-28T19:30:30.461Z,990.3
2023-03-28T19:34:33.107Z,990.3
2023-03-28T19:38:35.641Z,990.4
2023-03-28T19:40:36.673Z,990.3
2023-03-28T19:44:39.413Z,990.3
2023-03-28T19:48:42.472Z,990.2
2023-03-28T19:50:43.799Z,990.3
2023-03-28T19:54:46.665Z,990.2
2023-03-28T19:56:56.007Z,990.2
2023-03-28T20:00:50.906Z,990.1
2023-03-28T20:04:54.071Z,990
2023-03-28T20:06:55.596Z,989.9
2023-03-28T20:10:58.051Z,989.9
2023-03-28T20:12:59.123Z,989.9
2023-03-28T20:17:01.418Z,989.8
2023-03-28T20:21:04.476Z,989.7
2023-03-28T20:23:05.425Z,989.6
2023-03-28T20:27:08.916Z,989.5
2023-03-28T20:31:11.702Z,989.6
2023-03-28T20:33:13.097Z,989.6
2023-03-28T20:37:15.428Z,989.6
2023-03-28T20:39:17.284Z,989.4
2023-03-28T20:41:18.425Z,989.5
2023-03-28T20:43:19.701Z,989.4
2023-03-28T20:45:21.552Z,989.4
2023-03-28T20:49:24.951Z,989.4
2023-03-28T20:53:27.338Z,989.4
2023-03-28T20:55:28.409Z,989.4
2023-03-28T20:59:31.579Z,989.4
2023-03-28T21:03:34.876Z,989.3
2023-03-28T21:05:36.608Z,989.4
2023-03-28T21:09:39.435Z,989.4
2023-03-28T21:11:41.283Z,989.2
2023-03-28T21:15:44.932Z,989.3
2023-03-28T21:20:31.775Z,989.2
2023-03-28T21:22:33.986Z,989.2
2023-03-28T21:26:36.642Z,989.1
2023-03-28T21:30:39.461Z,989.3
2023-03-28T21:32:40.705Z,989.2
2023-03-28T21:36:44.592Z,989.3
2023-03-28T21:42:48.172Z,989.2
2023-03-28T21:46:51.285Z,989.4
2023-03-28T21:48:52.566Z,989.4
2023-03-28T21:50:53.731Z,989.4
2023-03-28T21:52:55.558Z,989.4
2023-03-28T21:56:58.970Z,989.2
2023-03-28T21:59:00.305Z,989.3
2023-03-28T22:01:01.601Z,989.4
2023-03-28T22:03:02.826Z,989.3
2023-03-28T22:05:05.210Z,989.3
2023-03-28T22:09:08.310Z,989.3
2023-03-28T22:11:09.508Z,989.1
2023-03-28T22:13:10.956Z,989.2
2023-03-28T22:15:12.361Z,989.3
2023-03-28T22:19:14.917Z,989.3
2023-03-28T22:21:16.431Z,989.2
2023-03-28T22:25:18.860Z,989.2
2023-03-28T22:29:22.306Z,989.2
2023-03-28T22:31:24.242Z,989.2
2023-03-28T22:35:26.788Z,989.3
2023-03-28T22:39:29.749Z,989.3
2023-03-28T22:41:31.285Z,989.2
2023-03-28T22:45:33.745Z,989.1
2023-03-28T22:47:35.195Z,989.1
2023-03-28T22:51:38.097Z,989.1
2023-03-28T22:55:40.814Z,988.9
2023-03-28T22:57:42.605Z,989
2023-03-28T23:01:45.437Z,989
2023-03-28T23:03:46.659Z,989
2023-03-28T23:07:50.023Z,988.9
2023-03-28T23:11:53.178Z,989
2023-03-28T23:13:55.311Z,988.9
2023-03-28T23:17:57.552Z,988.9
2023-03-28T23:22:01.136Z,989.1
2023-03-28T23:24:02.489Z,989.1
2023-03-28T23:28:05.742Z,989.1
2023-03-28T23:30:07.165Z,989
2023-03-28T23:34:09.842Z,989
2023-03-28T23:38:13.004Z,989
2023-03-28T23:40:15.666Z,989.1
2023-03-28T23:44:16.750Z,989.1
2023-03-28T23:46:17.918Z,989
2023-03-28T23:50:20.008Z,989.1
2023-03-28T23:54:23.176Z,989.2
2023-03-28T23:56:25.091Z,989.3
